createdAt,value
2019-01-26T00:00:33.676Z,93911.23
2019-01-26T00:03:02.373Z,93909.85
2019-01-26T00:05:30.989Z,93896.92
2019-01-26T00:07:59.677Z,93903.45
2019-01-26T00:10:28.301Z,93903.20
2019-01-26T00:12:56.982Z,93898.08
2019-01-26T00:15:25.994Z,93893.04
2019-01-26T00:17:54.655Z,93893.01
2019-01-26T00:20:23.277Z,93891.22
2019-01-26T00:22:51.987Z,93882.38
2019-01-26T00:25:20.657Z,93885.11
2019-01-26T00:27:49.278Z,93873.66
2019-01-26T00:30:18.094Z,93880.87
2019-01-26T00:32:46.711Z,93876.84
2019-01-26T00:35:15.394Z,93876.17
2019-01-26T00:37:44.019Z,93878.89
2019-01-26T00:40:13.402Z,93880.38
2019-01-26T00:42:42.027Z,93883.16
2019-01-26T00:45:12.817Z,93866.83
2019-01-26T00:47:41.507Z,93857.41
2019-01-26T00:50:12.147Z,93866.36
2019-01-26T00:52:40.766Z,93868.67
2019-01-26T00:55:10.490Z,93864.05
2019-01-26T00:57:39.184Z,93862.94
2019-01-26T01:00:23.321Z,93860.70
2019-01-26T01:02:51.950Z,93858.80
2019-01-26T01:05:20.857Z,93866.57
2019-01-26T01:07:49.575Z,93865.89
2019-01-26T01:10:19.619Z,93860.05
2019-01-26T01:12:48.399Z,93860.50
2019-01-26T01:15:19.555Z,93864.64
2019-01-26T01:17:48.578Z,93856.47
2019-01-26T01:20:17.951Z,93859.78
2019-01-26T01:22:46.757Z,93864.28
2019-01-26T01:25:15.452Z,93866.98
2019-01-26T01:27:44.136Z,93870.78
2019-01-26T01:30:21.760Z,93863.02
2019-01-26T01:32:50.540Z,93869.99
2019-01-26T01:35:19.156Z,93863.30
2019-01-26T01:37:47.769Z,93859.47
2019-01-26T01:40:18.154Z,93847.20
2019-01-26T01:42:46.763Z,93843.17
2019-01-26T01:45:23.093Z,93852.94
2019-01-26T01:47:51.727Z,93853.06
2019-01-26T01:50:20.416Z,93852.96
2019-01-26T01:52:49.025Z,93850.19
2019-01-26T01:55:17.854Z,93845.11
2019-01-26T01:57:46.630Z,93835.98
2019-01-26T02:00:18.511Z,93850.23
2019-01-26T02:02:47.118Z,93842.55
2019-01-26T02:05:15.731Z,93844.29
2019-01-26T02:07:44.378Z,93838.17
2019-01-26T02:10:15.761Z,93841.03
2019-01-26T02:12:44.465Z,93840.16
2019-01-26T02:15:14.089Z,93838.39
2019-01-26T02:17:42.692Z,93834.10
2019-01-26T02:20:20.320Z,93823.38
2019-01-26T02:22:48.921Z,93820.84
2019-01-26T02:25:17.708Z,93821.19
2019-01-26T02:27:46.340Z,93820.68
2019-01-26T02:30:22.618Z,93805.56
2019-01-26T02:32:51.224Z,93810.29
2019-01-26T02:35:20.008Z,93800.69
2019-01-26T02:37:48.685Z,93806.53
2019-01-26T02:40:18.037Z,93803.36
2019-01-26T02:42:46.677Z,93805.77
2019-01-26T02:45:16.359Z,93819.34
2019-01-26T02:47:44.970Z,93818.23
2019-01-26T02:50:18.277Z,93815.51
2019-01-26T02:52:46.884Z,93813.59
2019-01-26T02:55:15.507Z,93800.98
2019-01-26T02:57:44.205Z,93803.86
2019-01-26T03:00:23.590Z,93813.78
2019-01-26T03:02:52.215Z,93799.83
2019-01-26T03:05:20.949Z,93809.36
2019-01-26T03:07:49.567Z,93809.20
2019-01-26T03:10:20.189Z,93803.33
2019-01-26T03:12:48.884Z,93800.81
2019-01-26T03:15:19.812Z,93797.17
2019-01-26T03:17:48.579Z,93790.67
2019-01-26T03:20:17.993Z,93789.98
2019-01-26T03:22:46.719Z,93790.11
2019-01-26T03:25:17.443Z,93797.06
2019-01-26T03:27:46.423Z,93796.14
2019-01-26T03:30:20.333Z,93798.78
2019-01-26T03:32:49.358Z,93798.42
2019-01-26T03:35:17.977Z,93792.83
2019-01-26T03:37:46.699Z,93796.74
2019-01-26T03:40:18.076Z,93783.38
2019-01-26T03:42:46.691Z,93785.34
2019-01-26T03:45:16.567Z,93782.58
2019-01-26T03:47:45.184Z,93793.00
2019-01-26T03:50:15.559Z,93784.18
2019-01-26T03:52:44.177Z,93788.86
2019-01-26T03:55:15.932Z,93795.96
2019-01-26T03:57:44.547Z,93786.11
2019-01-26T04:00:21.763Z,93777.76
2019-01-26T04:02:50.377Z,93787.25
2019-01-26T04:05:19.055Z,93779.59
2019-01-26T04:07:47.670Z,93773.53
2019-01-26T04:10:16.669Z,93773.41
2019-01-26T04:12:45.298Z,93764.03
2019-01-26T04:15:17.188Z,93761.73
2019-01-26T04:17:45.859Z,93758.56
2019-01-26T04:20:19.394Z,93756.70
2019-01-26T04:22:48.170Z,93749.16
2019-01-26T04:25:16.799Z,93747.09
2019-01-26T04:27:45.608Z,93748.46
2019-01-26T04:30:19.938Z,93760.59
2019-01-26T04:32:48.644Z,93752.23
2019-01-26T04:35:17.254Z,93748.94
2019-01-26T04:37:46.014Z,93746.31
2019-01-26T04:40:18.517Z,93746.89
2019-01-26T04:42:47.400Z,93752.49
2019-01-26T04:45:18.887Z,93749.50
2019-01-26T04:47:47.546Z,93742.51
2019-01-26T04:50:18.163Z,93736.90
2019-01-26T04:52:46.867Z,93724.35
2019-01-26T04:55:16.752Z,93732.83
2019-01-26T04:57:45.362Z,93721.55
2019-01-26T05:00:22.483Z,93724.08
2019-01-26T05:02:51.104Z,93706.15
2019-01-26T05:05:19.790Z,93714.46
2019-01-26T05:07:48.485Z,93714.28
2019-01-26T05:10:19.290Z,93715.79
2019-01-26T05:12:48.187Z,93716.28
2019-01-26T05:15:17.755Z,93711.01
2019-01-26T05:17:46.427Z,93715.61
2019-01-26T05:20:17.950Z,93712.44
2019-01-26T05:22:46.616Z,93700.95
2019-01-26T05:25:15.379Z,93704.61
2019-01-26T05:27:44.026Z,93700.84
2019-01-26T05:30:18.313Z,93703.52
2019-01-26T05:32:46.938Z,93711.13
2019-01-26T05:35:15.636Z,93704.26
2019-01-26T05:37:44.253Z,93712.80
2019-01-26T05:40:15.215Z,93710.95
2019-01-26T05:42:43.853Z,93699.59
2019-01-26T05:45:15.137Z,93693.19
2019-01-26T05:47:49.058Z,93680.98
2019-01-26T05:50:23.055Z,93679.37
2019-01-26T05:52:51.745Z,93675.66
2019-01-26T05:55:20.371Z,93678.55
2019-01-26T05:57:49.260Z,93672.17
2019-01-26T06:00:27.224Z,93678.16
2019-01-26T06:02:55.910Z,93671.92
2019-01-26T06:05:24.552Z,93667.80
2019-01-26T06:07:53.254Z,93676.30
2019-01-26T06:10:21.957Z,93672.06
2019-01-26T06:12:50.612Z,93673.19
2019-01-26T06:15:19.251Z,93670.55
2019-01-26T06:17:54.787Z,93666.40
2019-01-26T06:20:18.409Z,93657.55
2019-01-26T06:22:47.084Z,93650.25
2019-01-26T06:25:18.768Z,93657.70
2019-01-26T06:27:47.388Z,93658.49
2019-01-26T06:30:19.247Z,93651.20
2019-01-26T06:32:47.869Z,93647.89
2019-01-26T06:35:16.646Z,93639.13
2019-01-26T06:37:45.330Z,93631.39
2019-01-26T06:40:16.540Z,93648.14
2019-01-26T06:42:45.199Z,93648.62
2019-01-26T06:45:16.605Z,93631.14
2019-01-26T06:47:45.347Z,93623.20
2019-01-26T06:50:18.201Z,93624.40
2019-01-26T06:52:46.926Z,93623.30
2019-01-26T06:55:15.729Z,93621.07
2019-01-26T06:57:44.641Z,93618.51
2019-01-26T07:00:16.323Z,93624.48
2019-01-26T07:02:44.947Z,93628.14
2019-01-26T07:05:18.342Z,93623.05
2019-01-26T07:07:47.012Z,93635.75
2019-01-26T07:10:15.641Z,93639.88
2019-01-26T07:12:44.354Z,93638.41
2019-01-26T07:15:13.675Z,93642.53
2019-01-26T07:17:42.403Z,93646.33
2019-01-26T07:20:14.008Z,93655.45
2019-01-26T07:22:42.713Z,93651.92
2019-01-26T07:25:12.895Z,93653.67
2019-01-26T07:27:41.632Z,93656.58
2019-01-26T07:30:22.478Z,93651.28
2019-01-26T07:32:55.440Z,93655.13
2019-01-26T07:35:28.477Z,93661.25
2019-01-26T07:37:57.088Z,93653.33
2019-01-26T07:40:26.180Z,93650.98
2019-01-26T07:42:54.799Z,93648.11
2019-01-26T07:45:23.496Z,93650.45
2019-01-26T07:47:52.110Z,93651.58
2019-01-26T07:50:24.728Z,93655.09
2019-01-26T07:52:53.430Z,93661.14
2019-01-26T07:55:25.755Z,93652.63
2019-01-26T07:57:59.405Z,93654.56
2019-01-26T08:00:36.258Z,93649.23
2019-01-26T08:03:04.967Z,93647.84
2019-01-26T08:05:36.793Z,93647.47
2019-01-26T08:08:05.500Z,93647.27
2019-01-26T08:10:34.128Z,93654.06
2019-01-26T08:13:02.806Z,93650.30
2019-01-26T08:15:33.285Z,93650.49
2019-01-26T08:18:03.472Z,93652.41
2019-01-26T08:20:32.107Z,93643.81
2019-01-26T08:23:00.793Z,93651.14
2019-01-26T08:25:29.530Z,93651.07
2019-01-26T08:27:59.681Z,93643.77
2019-01-26T08:30:28.316Z,93649.73
2019-01-26T08:32:57.094Z,93645.94
2019-01-26T08:35:25.732Z,93644.97
2019-01-26T08:37:54.426Z,93644.03
2019-01-26T08:40:23.198Z,93647.41
2019-01-26T08:42:51.863Z,93646.72
2019-01-26T08:45:20.536Z,93644.31
2019-01-26T08:47:49.620Z,93635.52
2019-01-26T08:50:20.357Z,93638.03
2019-01-26T08:52:49.052Z,93639.90
2019-01-26T08:55:18.286Z,93638.91
2019-01-26T08:57:47.148Z,93630.61
2019-01-26T09:00:18.839Z,93633.46
2019-01-26T09:02:56.138Z,93633.55
2019-01-26T09:05:29.623Z,93632.00
2019-01-26T09:08:00.385Z,93626.59
2019-01-26T09:10:28.799Z,93628.19
2019-01-26T09:12:57.452Z,93626.77
2019-01-26T09:15:26.203Z,93628.19
2019-01-26T09:17:56.501Z,93626.86
2019-01-26T09:20:25.192Z,93635.58
2019-01-26T09:22:53.932Z,93623.77
2019-01-26T09:25:22.644Z,93617.59
2019-01-26T09:27:51.497Z,93618.19
2019-01-26T09:30:21.585Z,93617.91
2019-01-26T09:32:50.551Z,93623.41
2019-01-26T09:35:19.559Z,93618.70
2019-01-26T09:37:48.346Z,93607.41
2019-01-26T09:40:21.582Z,93610.45
2019-01-26T09:42:50.287Z,93605.33
2019-01-26T09:45:20.415Z,93612.56
2019-01-26T09:47:49.110Z,93604.52
2019-01-26T09:50:21.296Z,93615.20
2019-01-26T09:52:50.050Z,93609.81
2019-01-26T09:55:20.602Z,93610.02
2019-01-26T09:57:49.288Z,93613.26
2019-01-26T10:00:26.162Z,93609.54
2019-01-26T10:02:54.962Z,93613.02
2019-01-26T10:05:23.684Z,93616.53
2019-01-26T10:07:52.347Z,93606.00
2019-01-26T10:10:21.865Z,93597.33
2019-01-26T10:12:50.532Z,93603.38
2019-01-26T10:15:22.286Z,93601.50
2019-01-26T10:17:50.902Z,93594.17
2019-01-26T10:20:22.318Z,93597.73
2019-01-26T10:22:51.026Z,93593.51
2019-01-26T10:25:19.716Z,93590.53
2019-01-26T10:27:52.477Z,93591.80
2019-01-26T10:30:28.829Z,93597.20
2019-01-26T10:32:57.500Z,93586.16
2019-01-26T10:35:27.747Z,93586.18
2019-01-26T10:37:59.485Z,93588.80
2019-01-26T10:40:44.567Z,93579.58
2019-01-26T10:43:14.829Z,93583.34
2019-01-26T10:45:43.454Z,93583.00
2019-01-26T10:48:12.128Z,93581.10
2019-01-26T10:50:40.773Z,93582.69
2019-01-26T10:53:13.412Z,93580.92
2019-01-26T10:55:42.027Z,93574.90
2019-01-26T10:58:16.210Z,93569.84
2019-01-26T11:00:44.980Z,93577.31
2019-01-26T11:03:19.454Z,93561.02
2019-01-26T11:05:48.160Z,93560.86
2019-01-26T11:08:21.021Z,93553.72
2019-01-26T11:10:49.697Z,93562.18
2019-01-26T11:13:19.892Z,93550.95
2019-01-26T11:15:48.586Z,93545.92
2019-01-26T11:18:17.343Z,93541.42
2019-01-26T11:20:45.980Z,93542.45
2019-01-26T11:23:20.247Z,93547.63
2019-01-26T11:25:48.867Z,93538.66
2019-01-26T11:28:20.621Z,93536.47
2019-01-26T11:30:49.251Z,93533.98
2019-01-26T11:33:17.956Z,93526.23
2019-01-26T11:35:46.594Z,93524.70
2019-01-26T11:38:15.304Z,93515.41
2019-01-26T11:40:47.070Z,93514.19
2019-01-26T11:43:15.748Z,93508.50
2019-01-26T11:45:47.418Z,93506.30
2019-01-26T11:48:17.691Z,93495.16
2019-01-26T11:51:02.846Z,93502.82
2019-01-26T11:53:31.543Z,93507.89
2019-01-26T11:56:01.756Z,93491.52
2019-01-26T11:58:30.460Z,93490.75
2019-01-26T12:01:07.832Z,93495.66
2019-01-26T12:03:38.042Z,93491.07
2019-01-26T12:06:11.311Z,93497.42
2019-01-26T12:08:41.526Z,93494.07
2019-01-26T12:11:11.693Z,93484.71
2019-01-26T12:13:41.212Z,93486.46
2019-01-26T12:16:12.993Z,93487.27
2019-01-26T12:18:41.686Z,93476.29
2019-01-26T12:21:11.956Z,93472.94
2019-01-26T12:23:43.650Z,93476.63
2019-01-26T12:26:12.339Z,93469.13
2019-01-26T12:28:41.057Z,93461.68
2019-01-26T12:31:11.196Z,93464.70
2019-01-26T12:33:39.966Z,93458.34
2019-01-26T12:36:08.608Z,93453.26
2019-01-26T12:38:37.321Z,93452.77
2019-01-26T12:41:05.946Z,93442.91
2019-01-26T12:43:34.659Z,93440.33
2019-01-26T12:46:03.472Z,93441.33
2019-01-26T12:48:32.198Z,93430.05
2019-01-26T12:51:00.810Z,93427.00
2019-01-26T12:53:30.755Z,93427.17
2019-01-26T12:55:59.384Z,93419.04
2019-01-26T12:58:28.048Z,93416.66
2019-01-26T13:00:56.682Z,93401.03
2019-01-26T13:03:25.404Z,93393.19
2019-01-26T13:05:54.148Z,93387.24
2019-01-26T13:08:22.858Z,93387.40
2019-01-26T13:10:54.577Z,93381.48
2019-01-26T13:13:23.228Z,93382.77
2019-01-26T13:15:51.861Z,93381.97
2019-01-26T13:18:20.690Z,93386.03
2019-01-26T13:20:49.320Z,93378.39
2019-01-26T13:23:23.101Z,93385.69
2019-01-26T13:25:51.510Z,93381.51
2019-01-26T13:28:21.639Z,93381.19
2019-01-26T13:30:51.902Z,93377.48
2019-01-26T13:33:22.076Z,93371.29
2019-01-26T13:35:50.770Z,93376.52
2019-01-26T13:38:19.413Z,93374.78
2019-01-26T13:40:48.103Z,93378.06
2019-01-26T13:43:16.734Z,93376.39
2019-01-26T13:45:45.427Z,93362.69
2019-01-26T13:48:14.059Z,93366.30
2019-01-26T13:50:42.757Z,93362.61
2019-01-26T13:53:11.448Z,93357.87
2019-01-26T13:55:40.098Z,93363.19
2019-01-26T13:58:08.793Z,93365.47
2019-01-26T14:00:38.380Z,93361.12
2019-01-26T14:03:07.181Z,93357.09
2019-01-26T14:05:38.844Z,93355.05
2019-01-26T14:08:12.041Z,93352.39
2019-01-26T14:10:52.280Z,93354.37
2019-01-26T14:13:21.041Z,93356.13
2019-01-26T14:15:49.785Z,93345.69
2019-01-26T14:18:18.545Z,93347.33
2019-01-26T14:20:49.954Z,93347.45
2019-01-26T14:23:21.271Z,93348.93
2019-01-26T14:25:51.602Z,93344.45
2019-01-26T14:28:20.640Z,93335.05
2019-01-26T14:30:51.975Z,93340.74
2019-01-26T14:33:20.680Z,93332.75
2019-01-26T14:35:52.169Z,93340.68
2019-01-26T14:38:24.075Z,93335.44
2019-01-26T14:40:52.712Z,93334.67
2019-01-26T14:43:21.401Z,93337.26
2019-01-26T14:45:50.115Z,93337.90
2019-01-26T14:48:21.131Z,93317.34
2019-01-26T14:50:49.785Z,93325.08
2019-01-26T14:53:18.458Z,93317.39
2019-01-26T14:55:47.127Z,93325.17
2019-01-26T14:58:15.847Z,93320.93
2019-01-26T15:00:44.567Z,93314.89
2019-01-26T15:03:14.827Z,93302.20
2019-01-26T15:05:43.481Z,93302.13
2019-01-26T15:08:15.310Z,93298.84
2019-01-26T15:10:43.933Z,93303.91
2019-01-26T15:13:12.641Z,93299.69
2019-01-26T15:15:41.391Z,93292.02
2019-01-26T15:18:11.809Z,93293.91
2019-01-26T15:20:42.084Z,93295.53
2019-01-26T15:23:14.322Z,93296.42
2019-01-26T15:25:42.967Z,93295.67
2019-01-26T15:28:19.184Z,93291.01
2019-01-26T15:30:47.851Z,93281.09
2019-01-26T15:33:19.599Z,93285.16
2019-01-26T15:35:48.300Z,93281.30
2019-01-26T15:38:17.037Z,93283.67
2019-01-26T15:40:47.407Z,93286.31
2019-01-26T15:43:16.044Z,93282.92
2019-01-26T15:45:45.078Z,93275.50
2019-01-26T15:48:13.761Z,93271.77
2019-01-26T15:50:42.387Z,93263.48
2019-01-26T15:53:13.506Z,93263.80
2019-01-26T15:55:45.284Z,93271.48
2019-01-26T15:58:13.998Z,93268.05
2019-01-26T16:00:46.217Z,93261.84
2019-01-26T16:03:14.847Z,93263.29
2019-01-26T16:05:46.152Z,93267.59
2019-01-26T16:08:14.940Z,93276.00
2019-01-26T16:10:43.667Z,93275.07
2019-01-26T16:13:12.384Z,93271.25
2019-01-26T16:15:42.583Z,93263.19
2019-01-26T16:18:13.233Z,93264.32
2019-01-26T16:20:41.785Z,93269.08
2019-01-26T16:23:12.510Z,93272.98
2019-01-26T16:25:40.957Z,93267.66
2019-01-26T16:28:09.585Z,93264.43
2019-01-26T16:30:38.411Z,93268.00
2019-01-26T16:33:07.100Z,93274.77
2019-01-26T16:35:35.724Z,93262.55
2019-01-26T16:38:07.546Z,93260.45
2019-01-26T16:40:36.974Z,93264.91
2019-01-26T16:43:07.134Z,93264.73
2019-01-26T16:45:38.116Z,93264.22
2019-01-26T16:48:08.799Z,93265.43
2019-01-26T16:50:38.912Z,93263.87
2019-01-26T16:53:07.620Z,93258.09
2019-01-26T16:55:36.273Z,93257.33
2019-01-26T16:58:05.534Z,93256.50
2019-01-26T17:00:40.280Z,93256.28
2019-01-26T17:03:10.642Z,93264.27
2019-01-26T17:05:40.245Z,93258.00
2019-01-26T17:08:17.404Z,93256.28
2019-01-26T17:10:49.606Z,93257.60
2019-01-26T17:13:22.782Z,93247.42
2019-01-26T17:15:51.427Z,93258.25
2019-01-26T17:18:20.305Z,93255.45
2019-01-26T17:20:52.911Z,93249.53
2019-01-26T17:23:21.562Z,93251.16
2019-01-26T17:25:50.288Z,93246.53
2019-01-26T17:28:22.033Z,93245.91
2019-01-26T17:30:50.659Z,93241.66
2019-01-26T17:33:19.361Z,93235.10
2019-01-26T17:35:48.184Z,93230.45
2019-01-26T17:38:18.290Z,93237.34
2019-01-26T17:40:54.199Z,93237.61
2019-01-26T17:46:47.742Z,93240.25
2019-01-26T17:49:16.555Z,93238.45
2019-01-26T17:51:45.351Z,93243.81
2019-01-26T17:54:15.801Z,93240.77
2019-01-26T17:56:44.508Z,93246.84
2019-01-26T17:59:16.065Z,93248.59
2019-01-26T18:01:44.761Z,93250.04
2019-01-26T18:04:21.240Z,93250.27
2019-01-26T18:06:55.496Z,93247.72
2019-01-26T18:09:24.410Z,93231.13
2019-01-26T18:11:53.041Z,93228.88
2019-01-26T18:14:21.910Z,93225.90
2019-01-26T18:16:50.531Z,93233.90
2019-01-26T18:19:19.368Z,93237.87
2019-01-26T18:21:47.992Z,93236.95
2019-01-26T18:24:18.257Z,93226.64
2019-01-26T18:26:46.928Z,93228.05
2019-01-26T18:29:15.724Z,93233.98
2019-01-26T18:31:46.946Z,93236.84
2019-01-26T18:34:17.619Z,93241.74
2019-01-26T18:36:48.074Z,93237.12
2019-01-26T18:39:16.897Z,93241.12
2019-01-26T18:41:47.913Z,93227.48
2019-01-26T18:44:16.807Z,93230.00
2019-01-26T18:46:48.570Z,93229.92
2019-01-26T18:49:17.384Z,93228.03
2019-01-26T18:51:46.221Z,93223.23
2019-01-26T18:54:16.722Z,93227.98
2019-01-26T18:56:45.373Z,93223.86
2019-01-26T18:59:14.175Z,93220.66
2019-01-26T19:01:42.949Z,93220.83
2019-01-26T19:04:15.099Z,93225.14
2019-01-26T19:06:43.820Z,93227.17
2019-01-26T19:09:12.630Z,93227.40
2019-01-26T19:11:41.335Z,93224.14
2019-01-26T19:14:10.545Z,93218.19
2019-01-26T19:16:41.264Z,93223.03
2019-01-26T19:19:10.023Z,93223.68
2019-01-26T19:21:40.273Z,93213.16
2019-01-26T19:24:13.096Z,93213.25
2019-01-26T19:26:41.884Z,93208.45
2019-01-26T19:29:10.807Z,93207.12
2019-01-26T19:31:39.512Z,93216.06
2019-01-26T19:34:12.624Z,93214.53
2019-01-26T19:36:41.365Z,93213.34
2019-01-26T19:39:10.014Z,93215.02
2019-01-26T19:41:38.701Z,93212.72
2019-01-26T19:44:08.920Z,93216.98
2019-01-26T19:46:37.584Z,93221.07
2019-01-26T19:49:09.150Z,93222.70
2019-01-26T19:51:40.232Z,93222.96
2019-01-26T19:54:11.139Z,93217.61
2019-01-26T19:56:40.060Z,93219.42
2019-01-26T19:59:11.494Z,93212.47
2019-01-26T20:01:40.258Z,93219.38
2019-01-26T20:04:09.220Z,93209.16
2019-01-26T20:06:38.024Z,93204.84
2019-01-26T20:09:09.954Z,93200.79
2019-01-26T20:11:40.210Z,93207.73
2019-01-26T20:14:10.107Z,93209.30
2019-01-26T20:16:38.947Z,93209.63
2019-01-26T20:19:07.619Z,93205.13
2019-01-26T20:21:36.369Z,93210.60
2019-01-26T20:24:05.555Z,93216.55
2019-01-26T20:26:34.251Z,93203.34
2019-01-26T20:29:03.232Z,93206.02
2019-01-26T20:31:33.619Z,93213.56
2019-01-26T20:34:02.281Z,93220.62
2019-01-26T20:36:32.921Z,93213.22
2019-01-26T20:39:01.745Z,93204.38
2019-01-26T20:41:31.724Z,93204.46
2019-01-26T20:44:00.337Z,93198.41
2019-01-26T20:46:33.172Z,93203.69
2019-01-26T20:49:01.856Z,93208.07
2019-01-26T20:51:30.575Z,93212.03
2019-01-26T20:53:59.267Z,93210.83
2019-01-26T20:56:29.371Z,93211.82
2019-01-26T20:58:58.117Z,93209.21
2019-01-26T21:01:26.944Z,93206.77
2019-01-26T21:03:55.696Z,93205.10
2019-01-26T21:06:24.352Z,93202.45
2019-01-26T21:08:54.941Z,93209.67
2019-01-26T21:11:23.555Z,93203.72
2019-01-26T21:13:52.285Z,93203.19
2019-01-26T21:16:21.235Z,93207.63
2019-01-26T21:18:51.037Z,93202.73
2019-01-26T21:21:19.756Z,93194.66
2019-01-26T21:23:50.139Z,93189.48
2019-01-26T21:26:18.895Z,93189.54
2019-01-26T21:28:51.889Z,93193.55
2019-01-26T21:31:20.632Z,93192.16
2019-01-26T21:33:49.363Z,93184.18
2019-01-26T21:36:18.068Z,93188.02
2019-01-26T21:38:50.392Z,93191.36
2019-01-26T21:41:19.047Z,93186.06
2019-01-26T21:43:49.260Z,93183.16
2019-01-26T21:46:18.147Z,93184.79
2019-01-26T21:48:46.905Z,93187.05
2019-01-26T21:51:15.644Z,93188.88
2019-01-26T21:53:44.444Z,93188.31
2019-01-26T21:56:16.179Z,93189.84
2019-01-26T21:58:47.779Z,93185.52
2019-01-26T22:01:16.474Z,93188.63
2019-01-26T22:03:47.998Z,93190.16
2019-01-26T22:06:16.651Z,93189.23
2019-01-26T22:08:45.228Z,93180.34
2019-01-26T22:11:15.195Z,93181.14
2019-01-26T22:13:43.784Z,93184.80
2019-01-26T22:16:12.372Z,93177.79
2019-01-26T22:18:41.089Z,93173.55
2019-01-26T22:21:09.707Z,93161.42
2019-01-26T22:23:38.552Z,93155.16
2019-01-26T22:26:08.783Z,93156.14
2019-01-26T22:28:37.583Z,93147.08
2019-01-26T22:31:06.270Z,93146.05
2019-01-26T22:33:34.899Z,93151.83
2019-01-26T22:36:03.619Z,93147.38
2019-01-26T22:38:32.239Z,93139.39
2019-01-26T22:41:02.342Z,93139.83
2019-01-26T22:43:31.007Z,93140.39
2019-01-26T22:45:59.687Z,93146.44
2019-01-26T22:48:28.319Z,93140.89
2019-01-26T22:50:57.015Z,93139.47
2019-01-26T22:53:28.147Z,93143.44
2019-01-26T22:55:56.835Z,93145.81
2019-01-26T22:58:25.527Z,93138.73
2019-01-26T23:01:00.207Z,93132.39
2019-01-26T23:03:31.926Z,93138.28
2019-01-26T23:06:03.588Z,93131.42
2019-01-26T23:08:35.369Z,93135.17
2019-01-26T23:11:07.159Z,93128.89
2019-01-26T23:13:40.419Z,93127.61
2019-01-26T23:16:23.371Z,93125.66
2019-01-26T23:19:08.614Z,93120.39
2019-01-26T23:21:52.302Z,93118.45
2019-01-26T23:24:41.394Z,93117.43
2019-01-26T23:27:13.932Z,93111.23
2019-01-26T23:30:02.406Z,93102.86
2019-01-26T23:32:31.122Z,93102.52
2019-01-26T23:34:59.806Z,93098.03
2019-01-26T23:37:28.627Z,93093.84
2019-01-26T23:39:58.808Z,93089.69
2019-01-26T23:42:27.499Z,93095.98
2019-01-26T23:44:56.128Z,93095.30
2019-01-26T23:47:24.801Z,93094.28
2019-01-26T23:49:54.889Z,93088.75
2019-01-26T23:52:23.617Z,93085.27
2019-01-26T23:54:52.301Z,93079.06
2019-01-26T23:57:21.031Z,93070.80
2019-01-26T23:59:50.144Z,93073.66
